Time;durP1;ratioP1;P1;durP2;ratioP2;P2;SDS_P1;SDS_P2;PMS_P1;PMS_P2;Temp;Humidity;BMP_temperature;BMP_pressure;BME280_temperature;BME280_humidity;BME280_pressure;Samples;Min_cycle;Max_cycle;Signal;HPM_P1;HPM_P2
2022/01/24 00:00:12;;;;;;;1.63;0.80;;;;;;;;;;5060253;28;20032;-70
2022/01/24 00:02:41;;;;;;;1.10;0.60;;;;;;;;;;5055301;28;20033;-69
2022/01/24 00:05:08;;;;;;;1.53;0.77;;;;;;;;;;5054899;28;20029;-69
2022/01/24 00:07:35;;;;;;;1.33;0.50;;;;;;;;;;5060197;28;20025;-70
2022/01/24 00:10:06;;;;;;;0.57;0.47;;;;;;;;;;5069343;28;20031;-70
2022/01/24 00:18:24;;;;;;;2.90;0.67;;;;;;;;;;5005781;28;20044;-70
2022/01/24 00:26:46;;;;;;;1.60;0.90;;;;;;;;;;5053330;28;20491;-69
2022/01/24 00:29:28;;;;;;;3.00;1.15;;;;;;;;;;4977966;28;20042;-70
2022/01/24 00:31:56;;;;;;;4.73;1.37;;;;;;;;;;4991537;28;20037;-70
2022/01/24 00:34:26;;;;;;;2.43;1.20;;;;;;;;;;5021184;28;20127;-70
2022/01/24 00:36:53;;;;;;;4.87;1.30;;;;;;;;;;5049588;28;20104;-70
2022/01/24 00:39:21;;;;;;;3.80;0.90;;;;;;;;;;5049508;28;20021;-70
2022/01/24 00:42:04;;;;;;;2.73;1.10;;;;;;;;;;5049181;28;20029;-70
2022/01/24 00:47:06;;;;;;;4.23;1.10;;;;;;;;;;5054190;28;20036;-70
2022/01/24 00:49:48;;;;;;;;;;;;;;;;;;5054689;28;20032;-70
2022/01/24 00:55:01;;;;;;;2.50;0.90;;;;;;;;;;5070069;28;20043;-72
2022/01/24 00:57:28;;;;;;;4.00;1.73;;;;;;;;;;5066785;28;20032;-70
2022/01/24 00:59:54;;;;;;;9.03;4.43;;;;;;;;;;5049094;28;20036;-70
2022/01/24 01:02:21;;;;;;;8.20;5.27;;;;;;;;;;5048809;28;20615;-70
2022/01/24 01:07:28;;;;;;;9.60;4.03;;;;;;;;;;5051859;28;20033;-70
2022/01/24 01:18:25;;;;;;;3.88;2.22;;;;;;;;;;5073353;28;20170;-70
2022/01/24 01:23:29;;;;;;;6.20;2.40;;;;;;;;;;5049636;28;20112;-69
2022/01/24 01:25:58;;;;;;;4.03;1.80;;;;;;;;;;5048648;28;20106;-70
2022/01/24 01:28:26;;;;;;;3.93;1.53;;;;;;;;;;5047841;28;20025;-70
2022/01/24 01:30:57;;;;;;;3.57;1.27;;;;;;;;;;5053303;28;20020;-70
2022/01/24 01:33:43;;;;;;;4.07;1.20;;;;;;;;;;5053525;28;20032;-69
2022/01/24 01:36:18;;;;;;;2.97;1.47;;;;;;;;;;5053395;28;20037;-70
2022/01/24 01:39:28;;;;;;;1.90;1.15;;;;;;;;;;5053079;28;20384;-69
2022/01/24 01:52:41;;;;;;;4.35;1.33;;;;;;;;;;5052121;28;20048;-70
2022/01/24 01:55:15;;;;;;;4.50;1.07;;;;;;;;;;5053040;28;20081;-69
2022/01/24 01:57:42;;;;;;;4.00;1.07;;;;;;;;;;5035122;28;20094;-70
2022/01/24 02:00:10;;;;;;;2.47;1.40;;;;;;;;;;5072883;28;20078;-69
2022/01/24 02:02:37;;;;;;;1.97;1.00;;;;;;;;;;5072282;28;20032;-69
2022/01/24 02:05:03;;;;;;;5.67;1.30;;;;;;;;;;5067756;28;20021;-69
2022/01/24 02:07:30;;;;;;;4.47;1.80;;;;;;;;;;5067212;28;20025;-69
2022/01/24 02:09:57;;;;;;;4.47;1.17;;;;;;;;;;5054165;28;20029;-69
2022/01/24 02:12:26;;;;;;;2.57;1.10;;;;;;;;;;5063046;28;20036;-69
2022/01/24 02:14:58;;;;;;;4.47;1.57;;;;;;;;;;5071625;28;20033;-69
2022/01/24 02:17:42;;;;;;;2.70;1.17;;;;;;;;;;5072212;28;20021;-69
2022/01/24 02:21:04;;;;;;;3.93;1.50;;;;;;;;;;5062907;28;20021;-69
2022/01/24 02:23:21;;;;;;;10.33;1.77;;;;;;;;;;5041420;28;20036;-69
2022/01/24 02:25:47;;;;;;;7.07;1.70;;;;;;;;;;5050512;28;20048;-69
2022/01/24 02:28:17;;;;;;;2.47;1.13;;;;;;;;;;5059514;28;20043;-69
2022/01/24 02:33:33;;;;;;;5.03;1.20;;;;;;;;;;5047312;28;20041;-69
2022/01/24 02:35:59;;;;;;;5.50;1.53;;;;;;;;;;5049585;28;20021;-69
2022/01/24 02:49:14;;;;;;;4.23;1.40;;;;;;;;;;5048405;28;20039;-70
2022/01/24 02:51:47;;;;;;;5.70;1.50;;;;;;;;;;5066862;28;20017;-69
2022/01/24 02:54:21;;;;;;;5.27;1.50;;;;;;;;;;5058122;28;20033;-69
2022/01/24 02:56:48;;;;;;;5.13;1.50;;;;;;;;;;5047054;28;20755;-69
2022/01/24 02:59:15;;;;;;;4.87;2.00;;;;;;;;;;5053981;28;20123;-69
2022/01/24 03:01:42;;;;;;;5.07;1.53;;;;;;;;;;5051884;28;20032;-69
2022/01/24 03:04:09;;;;;;;3.67;1.50;;;;;;;;;;5051726;28;20032;-71
2022/01/24 03:06:36;;;;;;;8.57;1.30;;;;;;;;;;5052053;28;20083;-70
2022/01/24 03:09:04;;;;;;;4.63;1.37;;;;;;;;;;5053158;28;20037;-67
2022/01/24 03:11:55;;;;;;;3.13;1.40;;;;;;;;;;5067038;28;20464;-69
2022/01/24 03:14:19;;;;;;;5.07;2.10;;;;;;;;;;5065976;28;20372;-70
2022/01/24 03:16:45;;;;;;;2.63;1.30;;;;;;;;;;5056781;28;20480;-70
2022/01/24 03:19:12;;;;;;;6.83;1.10;;;;;;;;;;5047803;28;20029;-70
2022/01/24 03:21:41;;;;;;;8.90;2.40;;;;;;;;;;5068662;28;20025;-70
2022/01/24 03:24:08;;;;;;;5.57;1.70;;;;;;;;;;5071207;28;20036;-70
2022/01/24 03:26:34;;;;;;;2.63;1.10;;;;;;;;;;5072143;28;20028;-70
2022/01/24 03:29:01;;;;;;;3.57;1.20;;;;;;;;;;5071210;28;20044;-70
2022/01/24 03:31:28;;;;;;;3.00;1.27;;;;;;;;;;5069763;28;20471;-70
2022/01/24 03:33:54;;;;;;;3.90;1.30;;;;;;;;;;5047618;28;20555;-70
2022/01/24 03:36:21;;;;;;;5.33;1.50;;;;;;;;;;5047594;28;20028;-70
2022/01/24 03:38:48;;;;;;;4.73;1.40;;;;;;;;;;5046500;28;20036;-70
2022/01/24 03:41:15;;;;;;;5.23;1.73;;;;;;;;;;5046307;28;20410;-70
2022/01/24 03:43:42;;;;;;;3.43;1.30;;;;;;;;;;5065432;28;20024;-69
2022/01/24 03:46:13;;;;;;;5.93;1.30;;;;;;;;;;5071464;28;20367;-70
2022/01/24 03:48:44;;;;;;;7.37;1.40;;;;;;;;;;5067545;28;20021;-70
2022/01/24 03:51:11;;;;;;;2.53;1.10;;;;;;;;;;5063450;28;20023;-70
2022/01/24 03:53:39;;;;;;;6.50;1.73;;;;;;;;;;5075052;28;20544;-69
2022/01/24 03:56:06;;;;;;;5.63;1.40;;;;;;;;;;5051272;28;20495;-70
2022/01/24 03:58:33;;;;;;;2.63;1.20;;;;;;;;;;5050162;28;20029;-70
2022/01/24 04:01:01;;;;;;;3.53;1.40;;;;;;;;;;5049921;28;20024;-70
2022/01/24 04:03:27;;;;;;;1.93;1.07;;;;;;;;;;5049942;28;20032;-70
2022/01/24 04:05:54;;;;;;;2.77;1.03;;;;;;;;;;5054414;28;20506;-70
2022/01/24 04:08:21;;;;;;;1.80;0.87;;;;;;;;;;5074678;28;20032;-70
2022/01/24 04:10:52;;;;;;;3.60;1.23;;;;;;;;;;5075196;28;20024;-70
2022/01/24 04:13:35;;;;;;;2.87;1.40;;;;;;;;;;5074959;28;20040;-70
2022/01/24 04:18:54;;;;;;;2.70;1.00;;;;;;;;;;5069847;28;20082;-69
2022/01/24 04:23:57;;;;;;;7.03;1.40;;;;;;;;;;5069613;28;20394;-69
2022/01/24 04:26:24;;;;;;;3.67;0.97;;;;;;;;;;5070007;28;20024;-70
2022/01/24 04:28:51;;;;;;;2.90;1.30;;;;;;;;;;5074827;28;20030;-70
2022/01/24 04:31:18;;;;;;;2.57;1.10;;;;;;;;;;5074657;28;20095;-70
2022/01/24 04:33:45;;;;;;;4.60;1.20;;;;;;;;;;5074523;28;20032;-69
2022/01/24 04:36:12;;;;;;;2.43;1.00;;;;;;;;;;5074333;28;20024;-69
2022/01/24 04:38:38;;;;;;;2.57;1.03;;;;;;;;;;5073643;28;20084;-69
2022/01/24 04:41:14;;;;;;;7.37;0.80;;;;;;;;;;5069210;28;20116;-69
2022/01/24 04:44:00;;;;;;;3.20;1.00;;;;;;;;;;5059411;28;20025;-69
2022/01/24 04:51:55;;;;;;;1.90;0.95;;;;;;;;;;5089199;28;20089;-71
2022/01/24 04:54:40;;;;;;;1.93;1.00;;;;;;;;;;5066228;28;20868;-70
2022/01/24 04:57:08;;;;;;;3.13;1.30;;;;;;;;;;5054556;28;20375;-70
2022/01/24 04:59:35;;;;;;;3.03;1.00;;;;;;;;;;5054288;28;20021;-70
2022/01/24 05:02:02;;;;;;;3.63;1.00;;;;;;;;;;5066766;28;20040;-70
2022/01/24 05:04:32;;;;;;;5.13;1.30;;;;;;;;;;5056654;28;20449;-70
2022/01/24 05:06:59;;;;;;;3.77;1.67;;;;;;;;;;5048709;28;20057;-70
2022/01/24 05:09:28;;;;;;;4.00;1.60;;;;;;;;;;5052197;28;20040;-69
2022/01/24 05:12:08;;;;;;;4.40;1.20;;;;;;;;;;5071347;28;20028;-70
2022/01/24 05:25:34;;;;;;;3.07;1.23;;;;;;;;;;5056637;28;19934;-70
2022/01/24 05:28:01;;;;;;;2.70;1.50;;;;;;;;;;5068072;28;20383;-71
2022/01/24 05:30:28;;;;;;;3.30;1.50;;;;;;;;;;5068222;28;20024;-70
2022/01/24 05:32:54;;;;;;;6.23;2.30;;;;;;;;;;5068089;28;20037;-70
2022/01/24 05:35:21;;;;;;;5.93;1.60;;;;;;;;;;5060866;28;20158;-70
2022/01/24 05:37:48;;;;;;;6.43;1.50;;;;;;;;;;5073337;28;20032;-71
2022/01/24 05:40:15;;;;;;;4.37;1.80;;;;;;;;;;5073390;28;20028;-70
2022/01/24 05:42:41;;;;;;;4.63;1.70;;;;;;;;;;5073374;28;20025;-70
2022/01/24 05:45:08;;;;;;;8.30;2.00;;;;;;;;;;5067814;28;20025;-70
2022/01/24 05:47:35;;;;;;;6.23;1.83;;;;;;;;;;5047920;28;20112;-70
2022/01/24 05:50:02;;;;;;;2.57;1.40;;;;;;;;;;5047657;28;20025;-69
2022/01/24 05:52:28;;;;;;;4.83;1.70;;;;;;;;;;5047920;28;20174;-70
2022/01/24 05:54:55;;;;;;;7.13;2.00;;;;;;;;;;5063027;28;20036;-70
2022/01/24 05:57:22;;;;;;;5.50;2.07;;;;;;;;;;5053343;28;20384;-70
2022/01/24 05:59:48;;;;;;;3.63;1.77;;;;;;;;;;5052948;28;20064;-70
2022/01/24 06:02:15;;;;;;;4.30;2.00;;;;;;;;;;5052937;28;20021;-70
2022/01/24 06:04:42;;;;;;;3.37;2.00;;;;;;;;;;5053976;28;20029;-70
2022/01/24 06:07:08;;;;;;;4.17;1.90;;;;;;;;;;5052700;28;20083;-70
2022/01/24 06:09:35;;;;;;;3.47;1.40;;;;;;;;;;5063433;28;20128;-70
2022/01/24 06:12:02;;;;;;;3.67;1.70;;;;;;;;;;5065803;28;20094;-70
2022/01/24 06:14:29;;;;;;;2.77;1.40;;;;;;;;;;5061871;28;20064;-70
2022/01/24 06:16:55;;;;;;;2.77;1.37;;;;;;;;;;5047539;28;20048;-70
2022/01/24 06:19:22;;;;;;;4.37;1.87;;;;;;;;;;5052316;28;20021;-70
2022/01/24 06:21:49;;;;;;;2.60;1.60;;;;;;;;;;5052421;28;20021;-70
2022/01/24 06:24:16;;;;;;;6.43;1.70;;;;;;;;;;5062093;28;20035;-70
2022/01/24 06:26:43;;;;;;;3.93;1.23;;;;;;;;;;5052662;28;20468;-70
2022/01/24 06:29:11;;;;;;;3.50;1.60;;;;;;;;;;5072249;28;20039;-70
2022/01/24 06:31:38;;;;;;;4.57;1.17;;;;;;;;;;5066862;28;20107;-70
2022/01/24 06:34:05;;;;;;;3.30;1.43;;;;;;;;;;5047962;28;20040;-70
2022/01/24 06:36:32;;;;;;;2.67;1.10;;;;;;;;;;5052630;28;20025;-70
2022/01/24 06:39:04;;;;;;;1.93;1.07;;;;;;;;;;5066461;28;20375;-70
2022/01/24 06:41:33;;;;;;;3.83;1.33;;;;;;;;;;5071939;28;20040;-70
2022/01/24 06:44:01;;;;;;;2.67;1.33;;;;;;;;;;5053808;28;20021;-70
2022/01/24 06:46:27;;;;;;;1.77;0.93;;;;;;;;;;5052423;28;20025;-70
2022/01/24 06:48:54;;;;;;;3.77;1.33;;;;;;;;;;5052377;28;20029;-70
2022/01/24 06:51:22;;;;;;;1.23;0.70;;;;;;;;;;5052768;28;20021;-70
2022/01/24 06:53:49;;;;;;;5.70;0.97;;;;;;;;;;5062571;28;20487;-70
2022/01/24 06:56:16;;;;;;;2.13;1.00;;;;;;;;;;5067171;28;20261;-70
2022/01/24 06:58:43;;;;;;;7.70;1.37;;;;;;;;;;5066761;28;20644;-70
2022/01/24 07:01:10;;;;;;;2.50;1.10;;;;;;;;;;5066612;28;20040;-70
2022/01/24 07:03:36;;;;;;;2.73;0.97;;;;;;;;;;5057758;28;20028;-70
2022/01/24 07:06:03;;;;;;;1.70;0.90;;;;;;;;;;5051761;28;20047;-70
2022/01/24 07:08:30;;;;;;;1.40;0.77;;;;;;;;;;5063213;28;20024;-70
2022/01/24 07:10:57;;;;;;;1.40;0.93;;;;;;;;;;5051885;28;20634;-70
2022/01/24 07:13:23;;;;;;;2.27;0.90;;;;;;;;;;5064188;28;20123;-70
2022/01/24 07:15:54;;;;;;;4.03;0.93;;;;;;;;;;5051353;28;20032;-70
2022/01/24 07:20:53;;;;;;;2.83;1.00;;;;;;;;;;5046478;28;20491;-70
2022/01/24 07:23:20;;;;;;;3.07;1.20;;;;;;;;;;5057729;28;20269;-69
2022/01/24 07:25:47;;;;;;;1.67;0.80;;;;;;;;;;5070743;28;20261;-70
2022/01/24 07:28:14;;;;;;;2.17;0.90;;;;;;;;;;5074877;28;20253;-70
2022/01/24 07:30:41;;;;;;;1.80;0.90;;;;;;;;;;5075637;28;20483;-70
2022/01/24 07:33:08;;;;;;;1.60;0.80;;;;;;;;;;5065996;28;20294;-70
2022/01/24 07:35:34;;;;;;;2.20;1.00;;;;;;;;;;5068099;28;20032;-70
2022/01/24 07:38:02;;;;;;;2.03;0.97;;;;;;;;;;5070724;28;20959;-70
2022/01/24 07:40:29;;;;;;;3.53;1.30;;;;;;;;;;5060928;28;20273;-70
2022/01/24 07:43:10;;;;;;;3.13;1.10;;;;;;;;;;5070295;28;20265;-69
2022/01/24 07:45:37;;;;;;;2.50;1.20;;;;;;;;;;5057018;28;20274;-70
2022/01/24 07:48:04;;;;;;;2.30;1.17;;;;;;;;;;5054961;28;20357;-70
2022/01/24 07:50:31;;;;;;;4.60;1.30;;;;;;;;;;5065595;28;20356;-70
2022/01/24 07:53:00;;;;;;;2.10;1.00;;;;;;;;;;5075391;28;20289;-69
2022/01/24 07:55:28;;;;;;;1.47;0.90;;;;;;;;;;5075113;28;20261;-70
2022/01/24 07:57:55;;;;;;;1.23;0.80;;;;;;;;;;5075327;28;20762;-70
2022/01/24 08:00:21;;;;;;;1.60;1.00;;;;;;;;;;5068061;28;20276;-70
2022/01/24 08:02:48;;;;;;;1.80;1.00;;;;;;;;;;5070120;28;20806;-70
2022/01/24 08:05:15;;;;;;;2.10;0.73;;;;;;;;;;5069292;28;20274;-69
2022/01/24 08:07:42;;;;;;;1.60;0.90;;;;;;;;;;5070013;28;20276;-70
2022/01/24 08:10:09;;;;;;;1.93;1.10;;;;;;;;;;5067758;28;20302;-70
2022/01/24 08:12:38;;;;;;;2.30;1.00;;;;;;;;;;5055003;28;20483;-70
2022/01/24 08:15:06;;;;;;;2.77;1.30;;;;;;;;;;5055015;28;20737;-70
2022/01/24 08:17:33;;;;;;;3.03;1.00;;;;;;;;;;5055126;28;20246;-70
2022/01/24 08:20:00;;;;;;;2.83;1.13;;;;;;;;;;5059796;28;20269;-70
2022/01/24 08:22:26;;;;;;;3.53;0.77;;;;;;;;;;5069931;28;20260;-70
2022/01/24 08:24:53;;;;;;;2.00;0.80;;;;;;;;;;5069413;28;20597;-70
2022/01/24 08:27:20;;;;;;;1.00;0.70;;;;;;;;;;5069340;28;20265;-70
2022/01/24 08:29:49;;;;;;;1.97;1.00;;;;;;;;;;5065239;28;20304;-69
2022/01/24 08:32:16;;;;;;;1.50;0.90;;;;;;;;;;5053868;28;20725;-70
2022/01/24 08:34:42;;;;;;;1.37;0.80;;;;;;;;;;5054372;28;20288;-70
2022/01/24 08:37:09;;;;;;;1.87;1.00;;;;;;;;;;5054494;28;20323;-70
2022/01/24 08:39:36;;;;;;;2.53;1.20;;;;;;;;;;5055930;28;20740;-69
2022/01/24 08:42:14;;;;;;;4.07;1.20;;;;;;;;;;5065677;28;20406;-70
2022/01/24 08:47:31;;;;;;;1.25;0.80;;;;;;;;;;5049333;28;20321;-70
2022/01/24 08:49:58;;;;;;;2.17;1.00;;;;;;;;;;5051929;28;20021;-70
2022/01/24 08:52:28;;;;;;;1.90;0.90;;;;;;;;;;5049102;28;20376;-70
2022/01/24 08:54:55;;;;;;;1.97;0.80;;;;;;;;;;5054152;28;20284;-69
2022/01/24 08:57:25;;;;;;;3.53;0.90;;;;;;;;;;5056867;28;20262;-70
2022/01/24 08:59:53;;;;;;;3.00;1.40;;;;;;;;;;5070515;28;20265;-70
2022/01/24 09:02:21;;;;;;;3.17;1.00;;;;;;;;;;5061838;28;20253;-69
2022/01/24 09:04:48;;;;;;;2.90;0.83;;;;;;;;;;5073460;28;20756;-70
2022/01/24 09:07:17;;;;;;;1.97;1.03;;;;;;;;;;5068515;28;20805;-70
2022/01/24 09:09:44;;;;;;;2.27;0.90;;;;;;;;;;5067086;28;20265;-69
2022/01/24 09:12:12;;;;;;;0.97;0.70;;;;;;;;;;5053980;28;20273;-70
2022/01/24 09:14:40;;;;;;;1.07;0.67;;;;;;;;;;5059669;28;20301;-70
2022/01/24 09:17:07;;;;;;;1.50;0.87;;;;;;;;;;5073913;28;20261;-70
2022/01/24 09:19:34;;;;;;;1.97;1.03;;;;;;;;;;5073759;28;20289;-70
2022/01/24 09:22:00;;;;;;;1.80;0.70;;;;;;;;;;5057780;28;20336;-69
2022/01/24 09:24:27;;;;;;;1.77;0.90;;;;;;;;;;5073835;28;20254;-69
2022/01/24 09:26:54;;;;;;;1.90;1.00;;;;;;;;;;5072714;28;20258;-70
2022/01/24 09:29:20;;;;;;;2.83;1.20;;;;;;;;;;5050403;28;20666;-70
2022/01/24 09:31:47;;;;;;;1.90;1.00;;;;;;;;;;5066249;28;20262;-70
2022/01/24 09:34:14;;;;;;;1.60;0.87;;;;;;;;;;5050772;28;20691;-70
2022/01/24 09:36:41;;;;;;;2.03;1.03;;;;;;;;;;5048057;28;20620;-70
2022/01/24 09:39:07;;;;;;;2.53;0.97;;;;;;;;;;5053316;28;20266;-70
2022/01/24 09:41:34;;;;;;;1.37;0.80;;;;;;;;;;5068764;28;20265;-69
2022/01/24 09:44:01;;;;;;;3.10;1.30;;;;;;;;;;5059077;28;20332;-70
2022/01/24 09:46:27;;;;;;;2.63;1.50;;;;;;;;;;5060923;28;20651;-70
2022/01/24 09:48:56;;;;;;;6.07;1.50;;;;;;;;;;5070983;28;20277;-70
2022/01/24 09:51:22;;;;;;;1.33;1.00;;;;;;;;;;5061716;28;20262;-70
2022/01/24 09:53:49;;;;;;;2.17;1.00;;;;;;;;;;5059330;28;20292;-70
2022/01/24 09:56:17;;;;;;;3.13;1.30;;;;;;;;;;5067437;28;20268;-70
2022/01/24 09:58:44;;;;;;;2.17;1.33;;;;;;;;;;5067555;28;20253;-70
2022/01/24 10:01:13;;;;;;;2.23;1.10;;;;;;;;;;5071985;28;20261;-70
2022/01/24 10:03:39;;;;;;;2.40;0.90;;;;;;;;;;5071255;28;20272;-70
2022/01/24 10:06:06;;;;;;;1.93;1.20;;;;;;;;;;5072613;28;20381;-69
2022/01/24 10:08:35;;;;;;;1.83;1.00;;;;;;;;;;5072989;28;20604;-69
2022/01/24 10:11:03;;;;;;;2.57;1.10;;;;;;;;;;5064967;28;20277;-69
2022/01/24 10:19:05;;;;;;;2.17;1.30;;;;;;;;;;5063443;28;20356;-69
2022/01/24 10:21:50;;;;;;;1.90;1.03;;;;;;;;;;5068004;28;20265;-69
2022/01/24 10:24:32;;;;;;;3.47;1.35;;;;;;;;;;5059041;28;20749;-69
2022/01/24 10:27:08;;;;;;;5.27;1.13;;;;;;;;;;5052529;28;20057;-69
2022/01/24 10:29:35;;;;;;;2.37;1.27;;;;;;;;;;5052492;28;20312;-70
2022/01/24 10:32:02;;;;;;;2.80;1.13;;;;;;;;;;5071161;28;20813;-69
2022/01/24 10:34:35;;;;;;;2.13;1.07;;;;;;;;;;5054945;28;20357;-69
2022/01/24 10:37:02;;;;;;;2.50;1.20;;;;;;;;;;5067054;28;20306;-70
2022/01/24 10:39:42;;;;;;;2.90;1.37;;;;;;;;;;5066824;28;20265;-69
2022/01/24 10:45:11;;;;;;;2.13;1.10;;;;;;;;;;5051253;28;20632;-69
2022/01/24 10:47:44;;;;;;;1.90;1.00;;;;;;;;;;5055644;28;20265;-70
2022/01/24 10:50:12;;;;;;;2.60;1.00;;;;;;;;;;5071903;28;20322;-69
2022/01/24 10:52:39;;;;;;;2.33;1.00;;;;;;;;;;5071833;28;20380;-69
2022/01/24 10:55:24;;;;;;;2.30;1.37;;;;;;;;;;5070429;28;20774;-69
2022/01/24 10:57:52;;;;;;;5.53;1.55;;;;;;;;;;5067088;28;20585;-69
2022/01/24 11:00:26;;;;;;;3.37;1.23;;;;;;;;;;5055371;28;20115;-69
2022/01/24 11:02:53;;;;;;;1.43;0.93;;;;;;;;;;5065658;28;20266;-69
2022/01/24 11:05:21;;;;;;;1.87;0.90;;;;;;;;;;5066528;28;20269;-69
2022/01/24 11:07:52;;;;;;;2.00;1.07;;;;;;;;;;5071523;28;20273;-69
2022/01/24 11:10:19;;;;;;;2.90;1.10;;;;;;;;;;5054405;28;20262;-69
2022/01/24 11:12:46;;;;;;;2.90;1.50;;;;;;;;;;5072042;28;20288;-69
2022/01/24 11:15:13;;;;;;;2.10;0.90;;;;;;;;;;5070449;28;20274;-69
2022/01/24 11:17:40;;;;;;;2.63;1.30;;;;;;;;;;5060501;28;20740;-69
2022/01/24 11:20:11;;;;;;;3.00;0.97;;;;;;;;;;5066962;28;20731;-69
2022/01/24 11:22:43;;;;;;;2.07;0.87;;;;;;;;;;5050569;28;20266;-70
2022/01/24 11:25:10;;;;;;;1.33;0.87;;;;;;;;;;5046693;28;20270;-69
2022/01/24 11:27:38;;;;;;;2.00;1.20;;;;;;;;;;5046666;28;20286;-69
2022/01/24 11:30:11;;;;;;;1.90;1.10;;;;;;;;;;5051994;28;20349;-69
2022/01/24 11:32:53;;;;;;;2.70;0.93;;;;;;;;;;5051810;28;20270;-69
2022/01/24 11:35:40;;;;;;;2.80;1.10;;;;;;;;;;5051815;28;20261;-69
2022/01/24 11:38:26;;;;;;;2.93;1.30;;;;;;;;;;5051975;28;20337;-69
2022/01/24 11:40:58;;;;;;;3.63;1.43;;;;;;;;;;5049219;28;20792;-69
2022/01/24 11:43:36;;;;;;;3.07;0.83;;;;;;;;;;5046559;28;20346;-69
2022/01/24 11:46:08;;;;;;;5.20;1.57;;;;;;;;;;5046368;28;20277;-69
2022/01/24 11:48:35;;;;;;;1.93;1.00;;;;;;;;;;5046308;28;20262;-69
2022/01/24 11:51:11;;;;;;;3.03;1.20;;;;;;;;;;5048777;28;20246;-69
2022/01/24 11:53:43;;;;;;;2.47;1.23;;;;;;;;;;5051648;28;20771;-69
2022/01/24 11:56:27;;;;;;;1.70;1.00;;;;;;;;;;5051707;28;20256;-69
2022/01/24 11:59:14;;;;;;;3.20;1.73;;;;;;;;;;5051692;28;20274;-69
2022/01/24 12:01:41;;;;;;;2.30;1.10;;;;;;;;;;5040968;28;20268;-69
2022/01/24 12:04:07;;;;;;;3.07;1.27;;;;;;;;;;5046556;28;20254;-69
2022/01/24 12:06:52;;;;;;;2.67;1.20;;;;;;;;;;5046374;28;20269;-69
2022/01/24 12:09:25;;;;;;;3.13;1.63;;;;;;;;;;5046525;28;21049;-69
2022/01/24 12:11:53;;;;;;;3.63;1.10;;;;;;;;;;5046332;28;20678;-69
2022/01/24 12:14:36;;;;;;;4.37;1.57;;;;;;;;;;5054370;28;20285;-69
2022/01/24 12:17:04;;;;;;;8.67;1.33;;;;;;;;;;5054484;28;20732;-69
2022/01/24 12:19:34;;;;;;;3.37;1.40;;;;;;;;;;5064920;28;20292;-69
2022/01/24 12:22:01;;;;;;;2.43;1.23;;;;;;;;;;5073751;28;20279;-69
2022/01/24 12:24:43;;;;;;;4.70;1.43;;;;;;;;;;5057937;28;20277;-70
2022/01/24 12:27:12;;;;;;;2.47;1.20;;;;;;;;;;5049469;28;20262;-69
2022/01/24 12:29:43;;;;;;;3.37;1.20;;;;;;;;;;5060256;28;20269;-69
2022/01/24 12:32:21;;;;;;;3.27;1.70;;;;;;;;;;5069515;28;20346;-69
2022/01/24 12:34:48;;;;;;;2.47;1.43;;;;;;;;;;5070528;28;20364;-69
2022/01/24 12:37:27;;;;;;;2.60;1.60;;;;;;;;;;5074675;28;20751;-69
2022/01/24 12:40:02;;;;;;;3.67;1.97;;;;;;;;;;5061178;28;20262;-69
2022/01/24 12:42:39;;;;;;;3.30;1.85;;;;;;;;;;5054571;28;20266;-69
2022/01/24 12:48:06;;;;;;;3.37;1.67;;;;;;;;;;5050579;28;20323;-69
2022/01/24 12:50:33;;;;;;;3.87;1.60;;;;;;;;;;5066719;28;20273;-69
2022/01/24 12:53:00;;;;;;;3.67;1.63;;;;;;;;;;5049804;28;20290;-69
2022/01/24 12:55:27;;;;;;;2.80;1.67;;;;;;;;;;5064960;28;20422;-69
2022/01/24 12:57:53;;;;;;;5.43;1.87;;;;;;;;;;5072259;28;20762;-69
2022/01/24 13:00:20;;;;;;;3.27;1.70;;;;;;;;;;5074000;28;20264;-69
2022/01/24 13:02:47;;;;;;;4.90;1.70;;;;;;;;;;5073962;28;20274;-69
2022/01/24 13:05:15;;;;;;;6.33;2.20;;;;;;;;;;5063624;28;20258;-69
2022/01/24 13:07:48;;;;;;;4.63;1.80;;;;;;;;;;5071942;28;20345;-69
2022/01/24 13:10:16;;;;;;;6.37;1.47;;;;;;;;;;5063622;28;20281;-69
2022/01/24 13:12:43;;;;;;;2.60;1.40;;;;;;;;;;5048819;28;20313;-69
2022/01/24 13:15:25;;;;;;;3.20;1.80;;;;;;;;;;5048898;28;20653;-69
2022/01/24 13:21:08;;;;;;;5.60;1.23;;;;;;;;;;5053687;28;20304;-69
2022/01/24 13:23:35;;;;;;;3.27;1.60;;;;;;;;;;5068836;28;20020;-69
2022/01/24 13:26:06;;;;;;;6.33;1.60;;;;;;;;;;5072618;28;20265;-69
2022/01/24 13:28:33;;;;;;;2.90;1.60;;;;;;;;;;5073743;28;20363;-69
2022/01/24 13:31:02;;;;;;;3.93;1.57;;;;;;;;;;5072337;28;20258;-69
2022/01/24 13:33:30;;;;;;;3.53;1.93;;;;;;;;;;5068220;28;20372;-69
2022/01/24 13:36:03;;;;;;;7.70;2.17;;;;;;;;;;5068503;28;20253;-69
2022/01/24 13:38:32;;;;;;;3.80;2.00;;;;;;;;;;5068058;28;20285;-69
2022/01/24 13:41:03;;;;;;;3.93;2.27;;;;;;;;;;5069300;28;20258;-69
2022/01/24 13:43:32;;;;;;;7.13;2.57;;;;;;;;;;5073309;28;20249;-69
2022/01/24 13:46:00;;;;;;;4.97;2.30;;;;;;;;;;5072507;28;20253;-69
2022/01/24 13:48:27;;;;;;;5.17;2.20;;;;;;;;;;5072488;28;20257;-69
2022/01/24 13:50:55;;;;;;;11.43;3.40;;;;;;;;;;5072502;28;20288;-69
2022/01/24 13:53:32;;;;;;;5.33;2.80;;;;;;;;;;5070067;28;20372;-69
2022/01/24 13:55:59;;;;;;;9.57;3.00;;;;;;;;;;5066955;28;20264;-69
2022/01/24 13:58:26;;;;;;;8.37;4.07;;;;;;;;;;5065412;28;20254;-69
2022/01/24 14:00:57;;;;;;;8.53;3.23;;;;;;;;;;5046999;28;20752;-69
2022/01/24 14:03:24;;;;;;;5.97;3.20;;;;;;;;;;5048774;28;20341;-69
2022/01/24 14:06:10;;;;;;;6.20;3.27;;;;;;;;;;5051962;28;20265;-69
2022/01/24 14:08:37;;;;;;;10.07;3.70;;;;;;;;;;5052138;28;20273;-69
2022/01/24 14:11:18;;;;;;;6.90;3.70;;;;;;;;;;5065187;28;20616;-69
2022/01/24 14:13:59;;;;;;;7.93;4.10;;;;;;;;;;5071649;28;20289;-69
2022/01/24 14:16:39;;;;;;;8.70;5.17;;;;;;;;;;5055702;28;20804;-69
2022/01/24 14:19:06;;;;;;;10.70;4.40;;;;;;;;;;5047408;28;20783;-69
2022/01/24 14:21:33;;;;;;;8.90;3.77;;;;;;;;;;5066410;28;20257;-69
2022/01/24 14:24:03;;;;;;;10.73;4.03;;;;;;;;;;5061362;28;20270;-68
2022/01/24 14:26:31;;;;;;;8.30;3.83;;;;;;;;;;5050440;28;20764;-68
2022/01/24 14:29:10;;;;;;;7.73;5.13;;;;;;;;;;5052165;28;20655;-68
2022/01/24 14:31:37;;;;;;;9.73;4.10;;;;;;;;;;5065830;28;20347;-69
2022/01/24 14:34:05;;;;;;;7.13;4.27;;;;;;;;;;5066308;28;20321;-69
2022/01/24 14:36:32;;;;;;;8.47;4.60;;;;;;;;;;5051265;28;20302;-69
2022/01/24 14:39:00;;;;;;;11.17;4.70;;;;;;;;;;5051469;28;20272;-69
2022/01/24 14:41:34;;;;;;;8.43;4.27;;;;;;;;;;5065891;28;20272;-69
2022/01/24 14:46:52;;;;;;;10.40;5.50;;;;;;;;;;5084149;28;20356;-70
2022/01/24 14:49:21;;;;;;;9.37;4.60;;;;;;;;;;5082874;28;20013;-70
2022/01/24 14:51:47;;;;;;;6.97;3.80;;;;;;;;;;5084604;28;20032;-70
2022/01/24 14:54:19;;;;;;;6.20;4.00;;;;;;;;;;5085079;28;20051;-70
2022/01/24 14:56:47;;;;;;;8.70;4.93;;;;;;;;;;5069042;28;20101;-70
2022/01/24 14:59:13;;;;;;;11.33;4.67;;;;;;;;;;5072665;28;20056;-70
2022/01/24 15:01:40;;;;;;;8.13;4.30;;;;;;;;;;5064093;28;20420;-70
2022/01/24 15:04:07;;;;;;;6.27;4.13;;;;;;;;;;5082555;28;20020;-70
2022/01/24 15:06:34;;;;;;;5.43;3.53;;;;;;;;;;5083715;28;20039;-71
2022/01/24 15:09:02;;;;;;;4.77;2.60;;;;;;;;;;5071630;28;20025;-70
2022/01/24 15:11:31;;;;;;;5.47;3.30;;;;;;;;;;5068878;28;20039;-70
2022/01/24 15:16:40;;;;;;;5.63;2.47;;;;;;;;;;5081380;28;20032;-71
2022/01/24 15:25:18;;;;;;;6.72;3.47;;;;;;;;;;5063862;28;20044;-71
2022/01/24 15:27:24;;;;;;;6.90;3.10;;;;;;;;;;5063162;28;20123;-70
2022/01/24 15:29:51;;;;;;;5.50;3.13;;;;;;;;;;5063557;28;20043;-71
2022/01/24 15:32:17;;;;;;;8.67;4.47;;;;;;;;;;5066257;28;20021;-70
2022/01/24 15:34:44;;;;;;;7.53;4.10;;;;;;;;;;5068522;28;20023;-71
2022/01/24 15:37:11;;;;;;;5.17;2.77;;;;;;;;;;5068740;28;20051;-70
2022/01/24 15:39:37;;;;;;;5.13;3.37;;;;;;;;;;5068724;28;20127;-71
2022/01/24 15:42:37;;;;;;;7.93;2.83;;;;;;;;;;5068115;28;20092;-70
2022/01/24 15:49:52;;;;;;;4.90;3.03;;;;;;;;;;5063138;28;20029;-71
2022/01/24 15:52:18;;;;;;;4.70;2.67;;;;;;;;;;5062944;28;20407;-71
2022/01/24 15:54:50;;;;;;;4.57;2.87;;;;;;;;;;5066130;28;20021;-70
2022/01/24 16:00:02;;;;;;;4.75;2.88;;;;;;;;;;5054870;28;20035;-71
2022/01/24 16:02:29;;;;;;;5.60;2.50;;;;;;;;;;5054534;28;20017;-70
2022/01/24 16:04:58;;;;;;;4.13;2.00;;;;;;;;;;5054843;28;20025;-71
2022/01/24 16:07:25;;;;;;;8.97;2.30;;;;;;;;;;5050357;28;20035;-70
2022/01/24 16:09:52;;;;;;;7.27;3.00;;;;;;;;;;5049548;28;20083;-71
2022/01/24 16:12:18;;;;;;;5.20;2.47;;;;;;;;;;5049734;28;20103;-70
2022/01/24 16:14:45;;;;;;;3.70;2.27;;;;;;;;;;5049636;28;20017;-70
2022/01/24 16:17:13;;;;;;;4.57;2.50;;;;;;;;;;5052730;28;20029;-71
2022/01/24 16:19:45;;;;;;;4.90;2.30;;;;;;;;;;5054734;28;20025;-71
2022/01/24 16:27:12;;;;;;;3.40;1.90;;;;;;;;;;5072927;28;20029;-71
2022/01/24 16:29:39;;;;;;;3.03;1.90;;;;;;;;;;5049361;28;20094;-71
2022/01/24 16:32:06;;;;;;;6.10;1.93;;;;;;;;;;5050168;28;20029;-71
2022/01/24 16:34:33;;;;;;;4.20;1.90;;;;;;;;;;5055863;28;20055;-74
2022/01/24 16:37:06;;;;;;;3.17;1.87;;;;;;;;;;5049107;28;20025;-73
2022/01/24 16:39:36;;;;;;;4.67;2.20;;;;;;;;;;5053273;28;20071;-73
2022/01/24 16:42:09;;;;;;;5.33;2.57;;;;;;;;;;5054073;28;20372;-74
2022/01/24 16:44:52;;;;;;;5.00;2.23;;;;;;;;;;5054024;28;20435;-74
2022/01/24 16:47:19;;;;;;;5.97;2.53;;;;;;;;;;5054159;28;20021;-74
2022/01/24 16:49:46;;;;;;;3.87;2.23;;;;;;;;;;5053824;28;20103;-74
2022/01/24 16:52:14;;;;;;;4.37;2.60;;;;;;;;;;5048639;28;20024;-74
2022/01/24 16:54:44;;;;;;;4.00;2.30;;;;;;;;;;5048430;28;20025;-75
2022/01/24 16:57:12;;;;;;;5.00;2.53;;;;;;;;;;5048745;28;20024;-74